<?xml version="1.0" encoding="UTF-8" standalone="no" ?>
<gpx xmlns="http://www.topografix.com/GPX/1/1" xmlns:xsi="http://www.w3.org/2001/XMLSchema-instance" xsi:schemaLocation="http://www.topografix.com/GPX/1/1 http://www.topografix.com/GPX/1/1/gpx.xsd" version="1.1" creator="VisuGPX - https://www.visugpx.com">
  <metadata>
    <name>Mailly-le-Château St Hubert</name>
    <desc><![CDATA[Mailly-le-Château, ferme St Hubert
Parking église Mailly-le-Château ]]></desc>
  </metadata>
  <trk>
    <name><![CDATA[Randonnée du 08/07/2021 à 21:04]]></name>
    <extensions>
      <line xmlns="http://www.topografix.com/GPX/gpx_style/0/2">
        <color>0000FF</color>
        <width>4</width>
      </line>
    </extensions>
    <trkseg>
      <trkpt lat="47.59625" lon="3.63709">
        <ele>178</ele>
        <time>2021-07-06T17:13:59+02:00</time>
      </trkpt>
      <trkpt lat="47.59644" lon="3.63719">
        <ele>178</ele>
        <time>2021-07-06T17:14:04+02:00</time>
      </trkpt>
      <trkpt lat="47.59657" lon="3.63727">
        <ele>179</ele>
        <time>2021-07-06T17:14:09+02:00</time>
      </trkpt>
      <trkpt lat="47.5966" lon="3.63773">
        <ele>178</ele>
        <time>2021-07-06T17:14:14+02:00</time>
      </trkpt>
      <trkpt lat="47.59717" lon="3.6378">
        <ele>177</ele>
        <time>2021-07-06T17:14:19+02:00</time>
      </trkpt>
      <trkpt lat="47.59726" lon="3.63704">
        <ele>178</ele>
        <time>2021-07-06T17:14:24+02:00</time>
      </trkpt>
      <trkpt lat="47.5982" lon="3.63725">
        <ele>180</ele>
        <time>2021-07-06T17:14:29+02:00</time>
      </trkpt>
      <trkpt lat="47.59836" lon="3.63737">
        <ele>180</ele>
        <time>2021-07-06T17:14:34+02:00</time>
      </trkpt>
      <trkpt lat="47.59917" lon="3.63747">
        <ele>182</ele>
        <time>2021-07-06T17:14:39+02:00</time>
      </trkpt>
      <trkpt lat="47.59928" lon="3.63866">
        <ele>184</ele>
        <time>2021-07-06T17:14:44+02:00</time>
      </trkpt>
      <trkpt lat="47.59984" lon="3.63887">
        <ele>186</ele>
        <time>2021-07-06T17:14:49+02:00</time>
      </trkpt>
      <trkpt lat="47.60038" lon="3.63894">
        <ele>188</ele>
        <time>2021-07-06T17:14:54+02:00</time>
      </trkpt>
      <trkpt lat="47.60088" lon="3.63898">
        <ele>190</ele>
        <time>2021-07-06T17:14:59+02:00</time>
      </trkpt>
      <trkpt lat="47.60129" lon="3.63905">
        <ele>192</ele>
        <time>2021-07-06T17:15:04+02:00</time>
      </trkpt>
      <trkpt lat="47.60182" lon="3.6391">
        <ele>193</ele>
        <time>2021-07-06T17:15:09+02:00</time>
      </trkpt>
      <trkpt lat="47.60193" lon="3.63915">
        <ele>193</ele>
        <time>2021-07-06T17:15:14+02:00</time>
      </trkpt>
      <trkpt lat="47.6021" lon="3.64078">
        <ele>194</ele>
        <time>2021-07-06T17:15:19+02:00</time>
      </trkpt>
      <trkpt lat="47.60173" lon="3.64213">
        <ele>192</ele>
        <time>2021-07-06T17:15:24+02:00</time>
      </trkpt>
      <trkpt lat="47.6042" lon="3.64153">
        <ele>190</ele>
        <time>2021-07-06T17:15:29+02:00</time>
      </trkpt>
      <trkpt lat="47.60565" lon="3.64106">
        <ele>180</ele>
        <time>2021-07-06T17:15:34+02:00</time>
      </trkpt>
      <trkpt lat="47.60633" lon="3.64093">
        <ele>172</ele>
        <time>2021-07-06T17:15:39+02:00</time>
      </trkpt>
      <trkpt lat="47.60745" lon="3.64088">
        <ele>159</ele>
        <time>2021-07-06T17:15:44+02:00</time>
      </trkpt>
      <trkpt lat="47.61086" lon="3.63911">
        <ele>138</ele>
        <time>2021-07-06T17:15:49+02:00</time>
      </trkpt>
      <trkpt lat="47.61213" lon="3.64365">
        <ele>139</ele>
        <time>2021-07-06T17:15:54+02:00</time>
      </trkpt>
      <trkpt lat="47.61267" lon="3.64575">
        <ele>138</ele>
        <time>2021-07-06T17:15:59+02:00</time>
      </trkpt>
      <trkpt lat="47.6128" lon="3.6478">
        <ele>139</ele>
        <time>2021-07-06T17:16:04+02:00</time>
      </trkpt>
      <trkpt lat="47.61426" lon="3.64804">
        <ele>160</ele>
        <time>2021-07-06T17:16:09+02:00</time>
      </trkpt>
      <trkpt lat="47.6162" lon="3.64812">
        <ele>180</ele>
        <time>2021-07-06T17:16:14+02:00</time>
      </trkpt>
      <trkpt lat="47.61717" lon="3.64923">
        <ele>184</ele>
        <time>2021-07-06T17:16:19+02:00</time>
      </trkpt>
      <trkpt lat="47.61787" lon="3.65022">
        <ele>185</ele>
        <time>2021-07-06T17:16:24+02:00</time>
      </trkpt>
      <trkpt lat="47.61925" lon="3.65079">
        <ele>188</ele>
        <time>2021-07-06T17:16:29+02:00</time>
      </trkpt>
      <trkpt lat="47.6205" lon="3.65224">
        <ele>186</ele>
        <time>2021-07-06T17:16:34+02:00</time>
      </trkpt>
      <trkpt lat="47.62135" lon="3.65297">
        <ele>181</ele>
        <time>2021-07-06T17:16:39+02:00</time>
      </trkpt>
      <trkpt lat="47.62106" lon="3.65202">
        <ele>183</ele>
        <time>2021-07-06T17:16:44+02:00</time>
      </trkpt>
      <trkpt lat="47.62093" lon="3.65087">
        <ele>181</ele>
        <time>2021-07-06T17:16:49+02:00</time>
      </trkpt>
      <trkpt lat="47.62091" lon="3.64939">
        <ele>187</ele>
        <time>2021-07-06T17:16:54+02:00</time>
      </trkpt>
      <trkpt lat="47.62071" lon="3.64728">
        <ele>196</ele>
        <time>2021-07-06T17:16:59+02:00</time>
      </trkpt>
      <trkpt lat="47.6207" lon="3.64522">
        <ele>199</ele>
        <time>2021-07-06T17:17:04+02:00</time>
      </trkpt>
      <trkpt lat="47.62133" lon="3.64287">
        <ele>203</ele>
        <time>2021-07-06T17:17:09+02:00</time>
      </trkpt>
      <trkpt lat="47.6223" lon="3.63989">
        <ele>206</ele>
        <time>2021-07-06T17:17:14+02:00</time>
      </trkpt>
      <trkpt lat="47.62283" lon="3.63842">
        <ele>208</ele>
        <time>2021-07-06T17:17:19+02:00</time>
      </trkpt>
      <trkpt lat="47.6233" lon="3.63645">
        <ele>212</ele>
        <time>2021-07-06T17:17:24+02:00</time>
      </trkpt>
      <trkpt lat="47.62369" lon="3.635">
        <ele>213</ele>
        <time>2021-07-06T17:17:29+02:00</time>
      </trkpt>
      <trkpt lat="47.62363" lon="3.63223">
        <ele>213</ele>
        <time>2021-07-06T17:17:34+02:00</time>
      </trkpt>
      <trkpt lat="47.62307" lon="3.63076">
        <ele>217</ele>
        <time>2021-07-06T17:17:39+02:00</time>
      </trkpt>
      <trkpt lat="47.62318" lon="3.6292">
        <ele>219</ele>
        <time>2021-07-06T17:17:44+02:00</time>
      </trkpt>
      <trkpt lat="47.62302" lon="3.62648">
        <ele>223</ele>
        <time>2021-07-06T17:17:49+02:00</time>
      </trkpt>
      <trkpt lat="47.6233" lon="3.62417">
        <ele>227</ele>
        <time>2021-07-06T17:17:54+02:00</time>
      </trkpt>
      <trkpt lat="47.62363" lon="3.62224">
        <ele>230</ele>
        <time>2021-07-06T17:17:59+02:00</time>
      </trkpt>
      <trkpt lat="47.62269" lon="3.62187">
        <ele>230</ele>
        <time>2021-07-06T17:18:04+02:00</time>
      </trkpt>
      <trkpt lat="47.62228" lon="3.62216">
        <ele>228</ele>
        <time>2021-07-06T17:18:09+02:00</time>
      </trkpt>
      <trkpt lat="47.62119" lon="3.62195">
        <ele>228</ele>
        <time>2021-07-06T17:18:14+02:00</time>
      </trkpt>
      <trkpt lat="47.62037" lon="3.62202">
        <ele>227</ele>
        <time>2021-07-06T17:18:19+02:00</time>
      </trkpt>
      <trkpt lat="47.61906" lon="3.62227">
        <ele>225</ele>
        <time>2021-07-06T17:18:24+02:00</time>
      </trkpt>
      <trkpt lat="47.61843" lon="3.62239">
        <ele>227</ele>
        <time>2021-07-06T17:18:29+02:00</time>
      </trkpt>
      <trkpt lat="47.61817" lon="3.62403">
        <ele>224</ele>
        <time>2021-07-06T17:18:34+02:00</time>
      </trkpt>
      <trkpt lat="47.61644" lon="3.62481">
        <ele>221</ele>
        <time>2021-07-06T17:18:39+02:00</time>
      </trkpt>
      <trkpt lat="47.61593" lon="3.62514">
        <ele>218</ele>
        <time>2021-07-08T21:09:19+02:00</time>
      </trkpt>
      <trkpt lat="47.61546" lon="3.62515">
        <ele>216</ele>
        <time>2021-07-06T17:18:44+02:00</time>
      </trkpt>
      <trkpt lat="47.61436" lon="3.62586">
        <ele>208</ele>
        <time>2021-07-06T17:18:49+02:00</time>
      </trkpt>
      <trkpt lat="47.61367" lon="3.62608">
        <ele>202</ele>
        <time>2021-07-06T17:18:54+02:00</time>
      </trkpt>
      <trkpt lat="47.61307" lon="3.62653">
        <ele>197</ele>
        <time>2021-07-06T17:18:59+02:00</time>
      </trkpt>
      <trkpt lat="47.61245" lon="3.6267">
        <ele>194</ele>
        <time>2021-07-06T17:19:04+02:00</time>
      </trkpt>
      <trkpt lat="47.61196" lon="3.62715">
        <ele>189</ele>
        <time>2021-07-08T21:09:49+02:00</time>
      </trkpt>
      <trkpt lat="47.61152" lon="3.62726">
        <ele>185</ele>
        <time>2021-07-08T21:09:54+02:00</time>
      </trkpt>
      <trkpt lat="47.61122" lon="3.62693">
        <ele>184</ele>
        <time>2021-07-06T17:19:09+02:00</time>
      </trkpt>
      <trkpt lat="47.61072" lon="3.62509">
        <ele>188</ele>
        <time>2021-07-06T17:19:14+02:00</time>
      </trkpt>
      <trkpt lat="47.61021" lon="3.62348">
        <ele>189</ele>
        <time>2021-07-08T21:10:09+02:00</time>
      </trkpt>
      <trkpt lat="47.60991" lon="3.62359">
        <ele>186</ele>
        <time>2021-07-06T17:19:19+02:00</time>
      </trkpt>
      <trkpt lat="47.60854" lon="3.6236">
        <ele>170</ele>
        <time>2021-07-06T17:19:24+02:00</time>
      </trkpt>
      <trkpt lat="47.60786" lon="3.62368">
        <ele>159</ele>
        <time>2021-07-06T17:19:29+02:00</time>
      </trkpt>
      <trkpt lat="47.60616" lon="3.62393">
        <ele>157</ele>
        <time>2021-07-06T17:19:34+02:00</time>
      </trkpt>
      <trkpt lat="47.6052" lon="3.62469">
        <ele>173</ele>
        <time>2021-07-06T17:19:39+02:00</time>
      </trkpt>
      <trkpt lat="47.60459" lon="3.62613">
        <ele>182</ele>
        <time>2021-07-06T17:19:44+02:00</time>
      </trkpt>
      <trkpt lat="47.60378" lon="3.62713">
        <ele>187</ele>
        <time>2021-07-06T17:19:49+02:00</time>
      </trkpt>
      <trkpt lat="47.60297" lon="3.6279">
        <ele>192</ele>
        <time>2021-07-06T17:19:54+02:00</time>
      </trkpt>
      <trkpt lat="47.60196" lon="3.62868">
        <ele>194</ele>
        <time>2021-07-06T17:19:59+02:00</time>
      </trkpt>
      <trkpt lat="47.6012" lon="3.62963">
        <ele>193</ele>
        <time>2021-07-06T17:20:04+02:00</time>
      </trkpt>
      <trkpt lat="47.60067" lon="3.63159">
        <ele>190</ele>
        <time>2021-07-06T17:20:09+02:00</time>
      </trkpt>
      <trkpt lat="47.59945" lon="3.63327">
        <ele>187</ele>
        <time>2021-07-06T17:20:14+02:00</time>
      </trkpt>
      <trkpt lat="47.59839" lon="3.63497">
        <ele>181</ele>
        <time>2021-07-06T17:20:19+02:00</time>
      </trkpt>
      <trkpt lat="47.59801" lon="3.63505">
        <ele>180</ele>
        <time>2021-07-06T17:20:24+02:00</time>
      </trkpt>
      <trkpt lat="47.59783" lon="3.63514">
        <ele>179</ele>
        <time>2021-07-06T17:20:29+02:00</time>
      </trkpt>
      <trkpt lat="47.59742" lon="3.63551">
        <ele>178</ele>
        <time>2021-07-06T17:20:34+02:00</time>
      </trkpt>
      <trkpt lat="47.59727" lon="3.63601">
        <ele>178</ele>
        <time>2021-07-06T17:20:39+02:00</time>
      </trkpt>
      <trkpt lat="47.59714" lon="3.63568">
        <ele>177</ele>
        <time>2021-07-06T17:20:44+02:00</time>
      </trkpt>
      <trkpt lat="47.59686" lon="3.63504">
        <ele>175</ele>
        <time>2021-07-06T17:20:49+02:00</time>
      </trkpt>
      <trkpt lat="47.59653" lon="3.63461">
        <ele>172</ele>
        <time>2021-07-06T17:20:54+02:00</time>
      </trkpt>
      <trkpt lat="47.59548" lon="3.63352">
        <ele>172</ele>
        <time>2021-07-06T17:20:59+02:00</time>
      </trkpt>
      <trkpt lat="47.59445" lon="3.63284">
        <ele>177</ele>
        <time>2021-07-06T17:21:04+02:00</time>
      </trkpt>
      <trkpt lat="47.59387" lon="3.6336">
        <ele>163</ele>
        <time>2021-07-06T17:21:09+02:00</time>
      </trkpt>
      <trkpt lat="47.59347" lon="3.63283">
        <ele>175</ele>
        <time>2021-07-06T17:21:14+02:00</time>
      </trkpt>
      <trkpt lat="47.59272" lon="3.63222">
        <ele>177</ele>
        <time>2021-07-06T17:21:19+02:00</time>
      </trkpt>
      <trkpt lat="47.59189" lon="3.6321">
        <ele>172</ele>
        <time>2021-07-06T17:21:24+02:00</time>
      </trkpt>
      <trkpt lat="47.59088" lon="3.63219">
        <ele>163</ele>
        <time>2021-07-06T17:21:29+02:00</time>
      </trkpt>
      <trkpt lat="47.58988" lon="3.63245">
        <ele>147</ele>
        <time>2021-07-06T17:21:34+02:00</time>
      </trkpt>
      <trkpt lat="47.58899" lon="3.63329">
        <ele>127</ele>
        <time>2021-07-06T17:21:39+02:00</time>
      </trkpt>
      <trkpt lat="47.59182" lon="3.63361">
        <ele>134</ele>
        <time>2021-07-06T17:21:44+02:00</time>
      </trkpt>
      <trkpt lat="47.59251" lon="3.63385">
        <ele>134</ele>
        <time>2021-07-06T17:21:49+02:00</time>
      </trkpt>
      <trkpt lat="47.59395" lon="3.63536">
        <ele>130</ele>
        <time>2021-07-06T17:21:54+02:00</time>
      </trkpt>
      <trkpt lat="47.59431" lon="3.63507">
        <ele>136</ele>
        <time>2021-07-06T17:21:59+02:00</time>
      </trkpt>
      <trkpt lat="47.59458" lon="3.63581">
        <ele>148</ele>
        <time>2021-07-06T17:22:04+02:00</time>
      </trkpt>
      <trkpt lat="47.59463" lon="3.63632">
        <ele>151</ele>
        <time>2021-07-06T17:22:09+02:00</time>
      </trkpt>
      <trkpt lat="47.59489" lon="3.63696">
        <ele>160</ele>
        <time>2021-07-06T17:22:14+02:00</time>
      </trkpt>
      <trkpt lat="47.59508" lon="3.63732">
        <ele>164</ele>
        <time>2021-07-06T17:22:19+02:00</time>
      </trkpt>
      <trkpt lat="47.59548" lon="3.63678">
        <ele>172</ele>
        <time>2021-07-06T17:22:24+02:00</time>
      </trkpt>
      <trkpt lat="47.59574" lon="3.63668">
        <ele>176</ele>
        <time>2021-07-06T17:22:29+02:00</time>
      </trkpt>
      <trkpt lat="47.59614" lon="3.63701">
        <ele>178</ele>
        <time>2021-07-06T17:22:34+02:00</time>
      </trkpt>
    </trkseg>
  </trk>
</gpx>